createdAt,value
2023-03-10T00:01:30.837Z,5.90
2023-03-10T00:03:58.850Z,5.43
2023-03-10T00:06:28.343Z,4.60
2023-03-10T00:08:56.099Z,5.35
2023-03-10T00:11:23.216Z,5.18
2023-03-10T00:13:50.137Z,4.75
2023-03-10T00:16:23.185Z,5.65
2023-03-10T00:18:50.486Z,4.80
2023-03-10T00:21:20.311Z,4.60
2023-03-10T00:23:47.397Z,4.97
2023-03-10T00:26:19.397Z,4.53
2023-03-10T00:28:46.953Z,5.50
2023-03-10T00:31:16.919Z,5.10
2023-03-10T00:33:43.923Z,4.78
2023-03-10T00:36:22.236Z,5.20
2023-03-10T00:38:50.213Z,5.10
2023-03-10T00:41:20.896Z,4.25
2023-03-10T00:43:48.151Z,5.57
2023-03-10T00:46:15.322Z,5.30
2023-03-10T00:48:42.234Z,5.05
2023-03-10T00:51:09.532Z,4.55
2023-03-10T00:53:39.007Z,4.90
2023-03-10T00:56:17.996Z,4.90
2023-03-10T00:58:46.629Z,4.90
2023-03-10T01:01:26.723Z,5.20
2023-03-10T01:03:55.918Z,4.53
2023-03-10T01:06:23.350Z,4.88
2023-03-10T01:08:50.402Z,4.82
2023-03-10T01:11:19.546Z,4.78
2023-03-10T01:13:47.079Z,5.30
2023-03-10T01:16:14.269Z,5.57
2023-03-10T01:18:41.122Z,4.90
2023-03-10T01:21:14.170Z,6.40
2023-03-10T01:23:40.958Z,5.75
2023-03-10T01:26:07.821Z,4.82
2023-03-10T01:28:34.602Z,6.10
2023-03-10T01:31:01.576Z,5.65
2023-03-10T01:33:28.473Z,5.30
2023-03-10T01:35:55.375Z,6.07
2023-03-10T01:38:22.180Z,6.07
2023-03-10T01:40:50.289Z,5.80
2023-03-10T01:43:20.199Z,5.50
2023-03-10T01:45:47.047Z,6.30
2023-03-10T01:48:15.554Z,5.53
2023-03-10T01:50:45.436Z,5.47
2023-03-10T01:53:14.431Z,5.60
2023-03-10T01:55:46.687Z,5.38
2023-03-10T01:58:16.829Z,6.05
2023-03-10T02:00:44.172Z,5.90
2023-03-10T02:03:24.680Z,5.50
2023-03-10T02:06:10.095Z,5.60
2023-03-10T02:08:46.375Z,5.10
2023-03-10T02:11:15.078Z,5.55
2023-03-10T02:13:41.898Z,5.88
2023-03-10T02:16:09.035Z,6.55
2023-03-10T02:18:36.014Z,6.53
2023-03-10T02:21:08.955Z,6.28
2023-03-10T02:24:14.790Z,6.72
2023-03-10T02:27:01.237Z,6.25
2023-03-10T02:29:59.147Z,6.07
2023-03-10T02:32:29.432Z,6.28
2023-03-10T02:34:56.413Z,6.72
2023-03-10T02:37:28.155Z,6.40
2023-03-10T02:39:55.110Z,8.23
2023-03-10T02:42:25.212Z,7.22
2023-03-10T02:44:52.934Z,7.05
2023-03-10T02:47:20.484Z,8.45
2023-03-10T02:49:47.611Z,6.57
2023-03-10T02:52:43.590Z,6.82
2023-03-10T02:55:19.656Z,6.28
2023-03-10T02:57:46.476Z,7.38
2023-03-10T03:00:13.773Z,6.10
2023-03-10T03:02:40.671Z,7.55
2023-03-10T03:05:08.113Z,6.75
2023-03-10T03:07:34.941Z,6.35
2023-03-10T03:10:02.292Z,7.05
2023-03-10T03:12:29.082Z,7.35
2023-03-10T03:14:56.101Z,7.75
2023-03-10T03:17:23.432Z,7.20
2023-03-10T03:19:50.233Z,7.38
2023-03-10T03:22:16.993Z,6.22
2023-03-10T03:24:43.837Z,6.72
2023-03-10T03:27:10.620Z,7.10
2023-03-10T03:29:37.433Z,7.03
2023-03-10T03:32:04.637Z,7.35
2023-03-10T03:34:31.515Z,8.48
2023-03-10T03:36:58.396Z,7.10
2023-03-10T03:39:25.247Z,7.53
2023-03-10T03:41:57.309Z,6.22
2023-03-10T03:44:24.151Z,7.43
2023-03-10T03:46:50.962Z,8.25
2023-03-10T03:49:17.747Z,7.95
2023-03-10T03:51:44.620Z,7.53
2023-03-10T03:54:11.514Z,8.32
2023-03-10T03:56:38.410Z,7.70
2023-03-10T03:59:05.848Z,7.45
2023-03-10T04:01:32.805Z,8.70
2023-03-10T04:03:59.608Z,9.18
2023-03-10T04:06:26.425Z,8.65
2023-03-10T04:08:53.335Z,7.50
2023-03-10T04:11:20.117Z,9.20
2023-03-10T04:13:47.020Z,8.32
2023-03-10T04:16:13.972Z,9.43
2023-03-10T04:18:41.404Z,8.25
2023-03-10T04:21:08.195Z,10.43
2023-03-10T04:23:35.014Z,7.80
2023-03-10T04:26:01.811Z,9.30
2023-03-10T04:28:28.567Z,8.95
2023-03-10T04:30:55.411Z,8.85
2023-03-10T04:33:22.260Z,8.68
2023-03-10T04:35:51.468Z,9.60
2023-03-10T04:38:18.668Z,9.27
2023-03-10T04:40:45.593Z,8.68
2023-03-10T04:43:12.432Z,9.32
2023-03-10T04:45:39.223Z,9.25
2023-03-10T04:48:06.126Z,8.13
2023-03-10T04:50:32.917Z,9.40
2023-03-10T04:52:59.703Z,9.35
2023-03-10T04:55:26.468Z,10.50
2023-03-10T04:57:53.363Z,9.73
2023-03-10T05:00:20.424Z,8.63
2023-03-10T05:02:47.256Z,9.90
2023-03-10T05:05:14.237Z,9.75
2023-03-10T05:07:41.061Z,9.27
2023-03-10T05:10:08.148Z,8.70
2023-03-10T05:12:34.960Z,8.07
2023-03-10T05:15:01.820Z,8.70
2023-03-10T05:17:29.438Z,8.95
2023-03-10T05:19:57.936Z,8.18
2023-03-10T05:22:24.691Z,8.30
2023-03-10T05:24:51.890Z,9.05
2023-03-10T05:27:19.901Z,8.93
2023-03-10T05:29:47.152Z,9.65
2023-03-10T05:32:13.929Z,8.20
2023-03-10T05:34:40.730Z,9.40
2023-03-10T05:37:07.502Z,9.23
2023-03-10T05:39:34.357Z,9.10
2023-03-10T05:42:01.145Z,9.85
2023-03-10T05:44:27.921Z,9.48
2023-03-10T05:46:54.951Z,9.85
2023-03-10T05:49:21.820Z,10.45
2023-03-10T05:51:49.221Z,10.10
2023-03-10T05:54:16.810Z,9.73
2023-03-10T05:56:43.611Z,9.45
2023-03-10T05:59:10.497Z,10.52
2023-03-10T06:01:37.510Z,10.98
2023-03-10T06:04:04.753Z,10.38
2023-03-10T06:06:31.803Z,12.30
2023-03-10T06:08:58.623Z,11.35
2023-03-10T06:11:25.436Z,10.60
2023-03-10T06:13:52.499Z,12.90
2023-03-10T06:16:19.696Z,11.77
2023-03-10T06:18:46.526Z,11.38
2023-03-10T06:21:14.900Z,12.73
2023-03-10T06:23:41.758Z,12.50
2023-03-10T06:26:12.489Z,12.88
2023-03-10T06:28:41.982Z,12.77
2023-03-10T06:31:14.653Z,12.10
2023-03-10T06:33:41.507Z,12.95
2023-03-10T06:36:10.908Z,12.52
2023-03-10T06:38:38.663Z,11.90
2023-03-10T06:41:06.023Z,12.75
2023-03-10T06:43:33.775Z,12.23
2023-03-10T06:46:04.530Z,12.68
2023-03-10T06:48:31.475Z,13.30
2023-03-10T06:50:58.305Z,13.95
2023-03-10T06:53:26.996Z,11.88
2023-03-10T06:56:05.672Z,11.85
2023-03-10T06:58:34.734Z,13.32
2023-03-10T07:01:01.888Z,12.73
2023-03-10T07:03:29.346Z,11.95
2023-03-10T07:05:59.839Z,12.85
2023-03-10T07:08:30.089Z,13.60
2023-03-10T07:10:57.281Z,14.20
2023-03-10T07:13:24.114Z,12.82
2023-03-10T07:15:51.111Z,13.15
2023-03-10T07:18:17.932Z,13.40
2023-03-10T07:20:45.241Z,14.88
2023-03-10T07:23:12.783Z,14.65
2023-03-10T07:25:39.748Z,13.80
2023-03-10T07:28:07.461Z,15.05
2023-03-10T07:30:34.687Z,13.27
2023-03-10T07:33:01.492Z,12.50
2023-03-10T07:35:28.265Z,14.85
2023-03-10T07:37:55.081Z,13.75
2023-03-10T07:40:25.234Z,14.98
2023-03-10T07:42:54.784Z,14.45
2023-03-10T07:45:23.524Z,15.70
2023-03-10T07:47:51.873Z,14.73
2023-03-10T07:50:20.075Z,15.15
2023-03-10T07:52:47.356Z,15.45
2023-03-10T07:55:14.171Z,16.58
2023-03-10T07:57:41.071Z,17.90
2023-03-10T08:00:09.280Z,16.45
2023-03-10T08:02:36.202Z,17.63
2023-03-10T08:05:03.044Z,16.88
2023-03-10T08:07:30.546Z,17.30
2023-03-10T08:09:57.391Z,17.40
2023-03-10T08:12:24.411Z,16.65
2023-03-10T08:14:52.091Z,18.00
2023-03-10T08:17:19.767Z,19.10
2023-03-10T08:19:46.529Z,18.67
2023-03-10T08:22:13.336Z,18.10
2023-03-10T08:24:40.428Z,16.85
2023-03-10T08:27:07.289Z,16.95
2023-03-10T08:29:34.281Z,17.98
2023-03-10T08:32:01.202Z,18.33
2023-03-10T08:34:32.698Z,17.60
2023-03-10T08:37:00.923Z,17.52
2023-03-10T08:39:28.820Z,17.65
2023-03-10T08:41:56.150Z,16.25
2023-03-10T08:44:23.160Z,18.27
2023-03-10T08:46:51.192Z,18.67
2023-03-10T08:49:20.103Z,16.67
2023-03-10T08:51:47.119Z,20.05
2023-03-10T08:54:16.608Z,18.10
2023-03-10T08:56:44.068Z,16.42
2023-03-10T08:59:10.861Z,16.17
2023-03-10T09:01:38.876Z,17.08
2023-03-10T09:04:08.219Z,17.10
2023-03-10T09:06:36.432Z,17.65
2023-03-10T09:09:05.235Z,15.15
2023-03-10T09:11:35.899Z,16.35
2023-03-10T09:14:04.529Z,15.57
2023-03-10T09:16:31.598Z,16.20
2023-03-10T09:18:59.269Z,15.32
2023-03-10T09:21:27.337Z,15.13
2023-03-10T09:23:54.560Z,14.55
2023-03-10T09:26:22.067Z,14.27
2023-03-10T09:28:51.150Z,15.43
2023-03-10T09:31:21.668Z,14.60
2023-03-10T09:33:48.751Z,16.38
2023-03-10T09:36:16.366Z,15.55
2023-03-10T09:38:43.662Z,13.60
2023-03-10T09:41:49.338Z,15.73
2023-03-10T09:44:30.939Z,14.90
2023-03-10T09:47:09.629Z,13.38
2023-03-10T09:49:59.455Z,14.65
2023-03-10T09:52:26.174Z,13.60
2023-03-10T09:55:01.755Z,14.95
2023-03-10T09:57:29.510Z,12.48
2023-03-10T10:00:00.649Z,14.15
2023-03-10T10:02:34.453Z,13.82
2023-03-10T10:05:06.961Z,13.82
2023-03-10T10:07:46.677Z,15.20
2023-03-10T10:10:29.519Z,14.25
2023-03-10T10:13:01.239Z,14.20
2023-03-10T10:15:32.886Z,12.70
2023-03-10T10:18:18.061Z,13.95
2023-03-10T10:21:19.153Z,14.77
2023-03-10T10:23:52.884Z,14.68
2023-03-10T10:26:26.988Z,14.00
2023-03-10T10:29:17.469Z,13.55
2023-03-10T10:32:11.820Z,13.45
2023-03-10T10:34:44.048Z,15.25
2023-03-10T10:37:42.845Z,13.88
2023-03-10T10:40:25.683Z,13.10
2023-03-10T10:42:57.698Z,14.73
2023-03-10T10:45:32.865Z,13.50
2023-03-10T10:48:00.526Z,14.32
2023-03-10T10:50:28.489Z,15.05
2023-03-10T10:53:21.718Z,13.10
2023-03-10T10:56:00.759Z,12.60
2023-03-10T10:58:39.208Z,13.93
2023-03-10T11:01:08.806Z,13.93
2023-03-10T11:03:41.375Z,13.02
2023-03-10T11:06:14.531Z,13.93
2023-03-10T11:08:45.177Z,13.85
2023-03-10T11:11:53.861Z,11.90
2023-03-10T11:14:46.064Z,13.65
2023-03-10T11:17:34.983Z,12.38
2023-03-10T11:20:23.718Z,12.82
2023-03-10T11:23:02.675Z,13.70
2023-03-10T11:25:36.974Z,13.57
2023-03-10T11:28:15.925Z,12.50
2023-03-10T11:31:13.464Z,13.25
2023-03-10T11:33:46.732Z,13.65
2023-03-10T11:36:13.541Z,12.88
2023-03-10T11:38:43.565Z,12.85
2023-03-10T11:41:20.197Z,12.88
2023-03-10T11:44:13.576Z,13.25
2023-03-10T11:47:16.214Z,12.60
2023-03-10T11:49:47.360Z,11.18
2023-03-10T11:52:18.822Z,11.40
2023-03-10T11:54:54.389Z,12.27
2023-03-10T11:57:23.555Z,11.77
2023-03-10T11:59:55.487Z,10.10
2023-03-10T12:02:28.615Z,12.98
2023-03-10T12:05:08.497Z,11.15
2023-03-10T12:07:42.725Z,9.93
2023-03-10T12:10:12.595Z,10.80
2023-03-10T12:12:41.686Z,9.48
2023-03-10T12:15:29.090Z,9.52
2023-03-10T12:17:56.380Z,9.40
2023-03-10T12:20:26.420Z,9.55
2023-03-10T12:22:56.094Z,10.32
2023-03-10T12:25:33.280Z,8.13
2023-03-10T12:28:27.417Z,7.22
2023-03-10T12:31:00.185Z,6.35
2023-03-10T12:33:42.338Z,5.70
2023-03-10T12:36:11.683Z,6.40
2023-03-10T12:38:48.966Z,6.93
2023-03-10T12:41:28.156Z,6.65
2023-03-10T12:44:21.142Z,6.28
2023-03-10T12:47:07.864Z,5.75
2023-03-10T12:49:40.805Z,6.03
2023-03-10T12:52:10.409Z,6.67
2023-03-10T12:54:55.857Z,6.53
2023-03-10T12:57:34.255Z,5.55
2023-03-10T13:00:36.727Z,6.90
2023-03-10T13:03:09.749Z,5.20
2023-03-10T13:05:56.992Z,5.40
2023-03-10T13:08:45.113Z,4.43
2023-03-10T13:11:24.616Z,6.23
2023-03-10T13:13:57.621Z,4.50
2023-03-10T13:16:24.405Z,5.23
2023-03-10T13:18:53.424Z,4.93
2023-03-10T13:21:26.491Z,5.07
2023-03-10T13:23:53.547Z,4.60
2023-03-10T13:26:21.916Z,4.53
2023-03-10T13:29:17.127Z,5.10
2023-03-10T13:31:54.122Z,4.70
2023-03-10T13:34:23.641Z,5.00
2023-03-10T13:36:50.466Z,4.90
2023-03-10T13:39:22.403Z,5.20
2023-03-10T13:41:53.731Z,4.37
2023-03-10T13:44:24.118Z,4.67
2023-03-10T13:46:53.630Z,5.33
2023-03-10T13:49:25.598Z,4.83
2023-03-10T13:51:58.671Z,4.07
2023-03-10T13:54:33.579Z,3.97
2023-03-10T13:57:03.387Z,4.67
2023-03-10T13:59:31.785Z,4.73
2023-03-10T14:02:00.874Z,5.20
2023-03-10T14:04:48.937Z,3.97
2023-03-10T14:07:18.497Z,4.57
2023-03-10T14:10:10.501Z,4.60
2023-03-10T14:12:51.520Z,4.03
2023-03-10T14:15:27.429Z,4.30
2023-03-10T14:18:06.464Z,4.13
2023-03-10T14:20:36.433Z,4.23
2023-03-10T14:23:26.506Z,4.30
2023-03-10T14:25:57.804Z,4.50
2023-03-10T14:28:32.557Z,4.57
2023-03-10T14:31:04.722Z,4.27
2023-03-10T14:33:31.525Z,4.20
2023-03-10T14:35:58.381Z,4.30
2023-03-10T14:38:25.203Z,4.47
2023-03-10T14:40:55.498Z,4.27
2023-03-10T14:43:28.907Z,3.97
2023-03-10T14:45:58.808Z,4.27
2023-03-10T14:48:29.061Z,4.43
2023-03-10T14:50:57.042Z,4.10
2023-03-10T14:53:25.725Z,4.37
2023-03-10T14:55:55.976Z,4.30
2023-03-10T14:58:40.944Z,5.10
2023-03-10T15:01:07.781Z,3.80
2023-03-10T15:03:34.630Z,3.70
2023-03-10T15:06:02.597Z,3.13
2023-03-10T15:08:30.643Z,3.30
2023-03-10T15:10:57.751Z,2.80
2023-03-10T15:13:25.052Z,3.40
2023-03-10T15:15:52.289Z,2.67
2023-03-10T15:18:21.710Z,2.40
2023-03-10T15:20:49.264Z,2.77
2023-03-10T15:23:19.396Z,2.87
2023-03-10T15:25:49.805Z,2.30
2023-03-10T15:28:16.618Z,2.90
2023-03-10T15:30:43.493Z,3.13
2023-03-10T15:33:13.631Z,2.80
2023-03-10T15:35:41.517Z,2.87
2023-03-10T15:38:10.197Z,2.37
2023-03-10T15:40:38.852Z,1.90
2023-03-10T15:43:05.621Z,2.10
2023-03-10T15:45:32.620Z,2.77
2023-03-10T15:47:59.873Z,4.13
2023-03-10T15:50:27.003Z,3.03
2023-03-10T15:52:56.397Z,3.20
2023-03-10T15:55:24.179Z,3.90
2023-03-10T15:57:51.456Z,2.60
2023-03-10T16:00:20.650Z,2.77
2023-03-10T16:02:48.028Z,2.90
2023-03-10T16:05:15.440Z,3.20
2023-03-10T16:07:42.238Z,3.53
2023-03-10T16:10:15.568Z,2.80
2023-03-10T16:12:42.506Z,3.13
2023-03-10T16:15:09.983Z,3.20
2023-03-10T16:17:36.858Z,3.37
2023-03-10T16:20:10.292Z,3.60
2023-03-10T16:22:40.536Z,4.00
2023-03-10T16:25:10.198Z,3.53
2023-03-10T16:27:37.091Z,3.37
2023-03-10T16:30:05.103Z,3.27
2023-03-10T16:32:32.099Z,2.97
2023-03-10T16:35:00.110Z,2.70
2023-03-10T16:37:28.358Z,3.33
2023-03-10T16:39:56.346Z,3.15
2023-03-10T16:42:23.918Z,4.13
2023-03-10T16:44:50.796Z,4.37
2023-03-10T16:47:18.174Z,3.70
2023-03-10T16:49:45.577Z,3.55
2023-03-10T16:52:12.393Z,3.87
2023-03-10T16:54:39.345Z,3.28
2023-03-10T16:57:07.133Z,3.97
2023-03-10T16:59:34.001Z,3.88
2023-03-10T17:02:00.906Z,4.50
2023-03-10T17:04:28.265Z,3.85
2023-03-10T17:07:00.043Z,3.75
2023-03-10T17:09:27.505Z,4.35
2023-03-10T17:11:56.842Z,3.83
2023-03-10T17:14:24.796Z,3.65
2023-03-10T17:17:00.358Z,3.58
2023-03-10T17:19:30.357Z,3.50
2023-03-10T17:22:03.643Z,4.18
2023-03-10T17:24:31.711Z,4.30
2023-03-10T17:27:07.514Z,3.15
2023-03-10T17:29:34.720Z,4.75
2023-03-10T17:32:14.481Z,4.27
2023-03-10T17:34:42.173Z,3.88
2023-03-10T17:37:12.011Z,3.85
2023-03-10T17:39:42.779Z,4.28
2023-03-10T17:42:15.875Z,4.18
2023-03-10T17:44:45.498Z,4.28
2023-03-10T17:47:20.320Z,3.85
2023-03-10T17:49:49.225Z,3.75
2023-03-10T17:52:27.783Z,4.60
2023-03-10T17:54:57.701Z,5.18
2023-03-10T17:57:27.705Z,4.07
2023-03-10T18:00:01.313Z,4.07
2023-03-10T18:02:30.848Z,4.55
2023-03-10T18:05:00.197Z,4.78
2023-03-10T18:07:27.766Z,4.80
2023-03-10T18:09:56.754Z,5.05
2023-03-10T18:12:23.788Z,5.00
2023-03-10T18:14:51.001Z,4.55
2023-03-10T18:17:29.139Z,5.80
2023-03-10T18:20:04.232Z,6.70
2023-03-10T18:22:40.142Z,4.63
2023-03-10T18:25:07.521Z,4.57
2023-03-10T18:27:35.869Z,4.40
2023-03-10T18:30:05.729Z,6.13
2023-03-10T18:32:37.091Z,6.50
2023-03-10T18:35:07.511Z,6.25
2023-03-10T18:37:34.856Z,5.20
2023-03-10T18:40:02.540Z,6.10
2023-03-10T18:42:35.799Z,5.93
2023-03-10T18:45:12.502Z,5.70
2023-03-10T18:47:39.956Z,5.68
2023-03-10T18:50:11.362Z,6.18
2023-03-10T18:53:06.164Z,5.63
2023-03-10T18:55:50.721Z,6.45
2023-03-10T18:58:18.240Z,6.80
2023-03-10T19:00:56.520Z,7.05
2023-03-10T19:03:34.385Z,6.53
2023-03-10T19:06:07.696Z,5.85
2023-03-10T19:08:39.695Z,6.25
2023-03-10T19:11:07.412Z,6.25
2023-03-10T19:13:34.938Z,6.70
2023-03-10T19:16:12.894Z,6.25
2023-03-10T19:18:49.352Z,6.00
2023-03-10T19:21:23.116Z,7.50
2023-03-10T19:23:53.680Z,6.30
2023-03-10T19:26:20.825Z,6.57
2023-03-10T19:29:01.297Z,7.32
2023-03-10T19:31:30.824Z,7.25
2023-03-10T19:34:00.184Z,6.35
2023-03-10T19:36:31.575Z,6.90
2023-03-10T19:39:07.469Z,7.15
2023-03-10T19:41:34.539Z,7.30
2023-03-10T19:44:02.853Z,6.68
2023-03-10T19:46:33.449Z,5.55
2023-03-10T19:49:05.190Z,6.63
2023-03-10T19:51:41.271Z,8.43
2023-03-10T19:54:11.428Z,8.45
2023-03-10T19:56:41.591Z,9.35
2023-03-10T19:59:23.900Z,11.70
2023-03-10T20:01:53.705Z,12.45
2023-03-10T20:04:20.869Z,11.77
2023-03-10T20:06:50.263Z,12.63
2023-03-10T20:09:19.203Z,11.10
2023-03-10T20:11:48.801Z,11.85
2023-03-10T20:14:15.964Z,12.15
2023-03-10T20:16:53.292Z,13.05
2023-03-10T20:19:22.932Z,12.10
2023-03-10T20:21:55.863Z,11.43
2023-03-10T20:24:28.305Z,11.48
2023-03-10T20:26:58.629Z,11.50
2023-03-10T20:29:48.326Z,10.98
2023-03-10T20:32:34.045Z,11.13
2023-03-10T20:35:04.261Z,11.18
2023-03-10T20:37:36.169Z,10.85
2023-03-10T20:40:30.611Z,10.80
2023-03-10T20:43:03.848Z,10.95
2023-03-10T20:45:31.884Z,10.85
2023-03-10T20:48:09.182Z,11.67
2023-03-10T20:50:42.757Z,13.93
2023-03-10T20:53:10.944Z,15.05
2023-03-10T20:55:38.133Z,15.20
2023-03-10T20:58:09.098Z,15.00
2023-03-10T21:00:37.988Z,13.50
2023-03-10T21:03:14.573Z,14.02
2023-03-10T21:08:41.082Z,12.70
2023-03-10T21:11:19.973Z,13.40
2023-03-10T21:13:54.767Z,14.15
2023-03-10T21:16:36.647Z,14.52
2023-03-10T21:19:09.182Z,15.70
2023-03-10T21:21:42.899Z,15.88
2023-03-10T21:24:12.903Z,15.20
2023-03-10T21:26:39.767Z,15.43
2023-03-10T21:29:06.591Z,14.82
2023-03-10T21:31:33.338Z,15.95
2023-03-10T21:34:00.166Z,15.13
2023-03-10T21:36:27.068Z,16.42
2023-03-10T21:38:53.858Z,16.17
2023-03-10T21:41:26.613Z,15.15
2023-03-10T21:43:54.583Z,16.08
2023-03-10T21:46:21.603Z,17.52
2023-03-10T21:48:48.645Z,15.80
2023-03-10T21:51:17.687Z,15.20
2023-03-10T21:53:45.621Z,16.85
2023-03-10T21:56:12.780Z,14.38
2023-03-10T21:58:39.666Z,16.95
2023-03-10T22:01:07.682Z,15.15
2023-03-10T22:03:35.268Z,14.38
2023-03-10T22:06:04.888Z,15.20
2023-03-10T22:08:33.395Z,13.45
2023-03-10T22:11:01.109Z,14.05
2023-03-10T22:13:28.289Z,13.02
2023-03-10T22:15:55.121Z,13.13
2023-03-10T22:18:22.064Z,13.13
2023-03-10T22:20:48.840Z,10.95
2023-03-10T22:23:15.838Z,13.00
2023-03-10T22:25:42.628Z,13.48
2023-03-10T22:28:09.680Z,12.77
2023-03-10T22:30:36.561Z,12.63
2023-03-10T22:33:03.435Z,13.30
2023-03-10T22:35:30.303Z,14.48
2023-03-10T22:37:57.190Z,14.63
2023-03-10T22:40:25.433Z,15.18
2023-03-10T22:42:52.948Z,13.35
2023-03-10T22:45:26.627Z,14.47
2023-03-10T22:47:57.363Z,12.85
2023-03-10T22:50:33.854Z,12.90
2023-03-10T22:53:02.936Z,13.23
2023-03-10T22:55:35.040Z,12.55
2023-03-10T22:58:07.104Z,12.77
2023-03-10T23:00:35.019Z,13.93
2023-03-10T23:03:02.544Z,12.85
2023-03-10T23:05:29.471Z,13.37
2023-03-10T23:07:57.480Z,13.50
2023-03-10T23:10:30.077Z,13.05
2023-03-10T23:12:59.900Z,12.18
2023-03-10T23:15:29.668Z,12.32
2023-03-10T23:17:57.430Z,13.97
2023-03-10T23:20:27.623Z,13.38
2023-03-10T23:22:56.939Z,12.35
2023-03-10T23:25:30.439Z,12.45
2023-03-10T23:27:57.485Z,12.40
2023-03-10T23:30:24.961Z,11.48
2023-03-10T23:32:52.501Z,11.20
2023-03-10T23:35:22.797Z,11.10
2023-03-10T23:37:49.780Z,12.05
2023-03-10T23:40:18.909Z,11.25
2023-03-10T23:42:46.517Z,10.52
2023-03-10T23:45:19.168Z,10.35
2023-03-10T23:47:47.247Z,10.90
2023-03-10T23:50:28.244Z,12.55
2023-03-10T23:52:55.643Z,10.90
2023-03-10T23:55:25.452Z,10.70
2023-03-10T23:57:52.904Z,10.23
